createdAt,value
2017-08-10T00:00:41.905Z,15.73
2017-08-10T00:01:41.868Z,15.67
2017-08-10T00:02:41.855Z,15.64
2017-08-10T00:03:41.832Z,15.56
2017-08-10T00:04:41.810Z,15.49
2017-08-10T00:05:41.800Z,15.55
2017-08-10T00:06:41.772Z,15.49
2017-08-10T00:07:41.451Z,15.55
2017-08-10T00:08:41.729Z,15.48
2017-08-10T00:09:41.721Z,15.53
2017-08-10T00:10:41.683Z,15.51
2017-08-10T00:11:41.664Z,15.51
2017-08-10T00:12:41.643Z,15.38
2017-08-10T00:13:41.821Z,15.51
2017-08-10T00:14:41.606Z,15.38
2017-08-10T00:15:41.594Z,15.48
2017-08-10T00:16:41.820Z,15.43
2017-08-10T00:17:41.537Z,15.35
2017-08-10T00:18:41.515Z,15.38
2017-08-10T00:19:41.504Z,15.4
2017-08-10T00:20:41.479Z,15.49
2017-08-10T00:21:41.452Z,15.38
2017-08-10T00:22:40.846Z,15.48
2017-08-10T00:23:41.409Z,15.52
2017-08-10T00:24:41.389Z,15.51
2017-08-10T00:25:41.371Z,15.48
2017-08-10T00:26:41.362Z,15.49
2017-08-10T00:27:41.026Z,15.55
2017-08-10T00:28:41.303Z,15.51
2017-08-10T00:29:41.286Z,15.51
2017-08-10T00:30:41.263Z,15.53
2017-08-10T00:31:41.246Z,15.53
2017-08-10T00:32:41.223Z,15.59
2017-08-10T00:33:41.254Z,15.53
2017-08-10T00:34:41.206Z,15.66
2017-08-10T00:35:41.175Z,15.64
2017-08-10T00:36:41.143Z,15.66
2017-08-10T00:37:41.122Z,15.66
2017-08-10T00:38:41.105Z,15.58
2017-08-10T00:39:41.076Z,15.55
2017-08-10T00:40:41.062Z,15.6
2017-08-10T00:41:40.733Z,15.59
2017-08-10T00:42:41.016Z,15.64
2017-08-10T00:43:40.996Z,15.67
2017-08-10T00:44:40.972Z,15.64
2017-08-10T00:45:40.998Z,15.53
2017-08-10T00:46:40.627Z,15.64
2017-08-10T00:47:40.607Z,15.62
2017-08-10T00:48:40.891Z,15.59
2017-08-10T00:49:40.884Z,15.59
2017-08-10T00:50:40.846Z,15.68
2017-08-10T00:51:40.835Z,15.56
2017-08-10T00:52:40.552Z,15.6
2017-08-10T00:53:40.786Z,15.64
2017-08-10T00:54:40.763Z,15.6
2017-08-10T00:55:40.741Z,15.62
2017-08-10T00:56:40.717Z,15.66
2017-08-10T00:57:40.747Z,15.58
2017-08-10T00:58:40.676Z,15.58
2017-08-10T00:59:40.656Z,15.6
2017-08-10T01:00:40.640Z,15.6
2017-08-10T01:01:40.616Z,15.55
2017-08-10T01:02:40.599Z,15.59
2017-08-10T01:03:40.571Z,15.58
2017-08-10T01:04:40.555Z,15.55
2017-08-10T01:05:40.254Z,15.62
2017-08-10T01:06:40.507Z,15.53
2017-08-10T01:07:40.485Z,15.56
2017-08-10T01:08:40.461Z,15.55
2017-08-10T01:09:40.446Z,15.58
2017-08-10T01:10:40.424Z,15.62
2017-08-10T01:11:40.463Z,15.66
2017-08-10T01:12:40.388Z,15.6
2017-08-10T01:13:40.367Z,15.62
2017-08-10T01:14:40.335Z,15.58
2017-08-10T01:15:40.018Z,15.68
2017-08-10T01:16:40.304Z,15.71
2017-08-10T01:17:40.271Z,15.7
2017-08-10T01:18:40.255Z,15.7
2017-08-10T01:19:40.230Z,15.73
2017-08-10T01:20:40.268Z,15.66
2017-08-10T01:21:40.209Z,15.64
2017-08-10T01:22:40.175Z,15.64
2017-08-10T01:23:40.148Z,15.66
2017-08-10T01:24:40.129Z,15.6
2017-08-10T01:25:40.122Z,15.62
2017-08-10T01:26:40.089Z,15.51
2017-08-10T01:27:40.067Z,15.58
2017-08-10T01:28:40.042Z,15.66
2017-08-10T01:29:40.046Z,15.49
2017-08-10T01:30:39.698Z,15.52
2017-08-10T01:31:39.986Z,15.55
2017-08-10T01:32:39.657Z,15.51
2017-08-10T01:33:39.946Z,15.53
2017-08-10T01:34:39.921Z,15.48
2017-08-10T01:35:39.894Z,15.49
2017-08-10T01:36:39.888Z,15.48
2017-08-10T01:37:39.851Z,15.49
2017-08-10T01:38:39.834Z,15.49
2017-08-10T01:39:39.814Z,15.53
2017-08-10T01:40:39.793Z,15.49
2017-08-10T01:41:39.475Z,15.48
2017-08-10T01:42:39.749Z,15.52
2017-08-10T01:43:39.735Z,15.43
2017-08-10T01:44:39.718Z,15.48
2017-08-10T01:45:39.677Z,15.4
2017-08-10T01:46:39.668Z,15.37
2017-08-10T01:47:39.653Z,15.44
2017-08-10T01:48:39.629Z,15.4
2017-08-10T01:49:39.610Z,15.41
2017-08-10T01:50:39.581Z,15.4
2017-08-10T01:51:39.563Z,15.34
2017-08-10T01:52:39.535Z,15.37
2017-08-10T01:53:39.518Z,15.33
2017-08-10T01:54:39.499Z,15.28
2017-08-10T01:55:39.466Z,15.25
2017-08-10T01:56:39.449Z,15.18
2017-08-10T01:57:39.432Z,15.18
2017-08-10T01:58:39.463Z,15.13
2017-08-10T01:59:39.388Z,15.09
2017-08-10T02:00:39.371Z,15.13
2017-08-10T02:01:39.346Z,15.03
2017-08-10T02:02:39.328Z,15.05
2017-08-10T02:03:39.303Z,15.11
2017-08-10T02:04:38.982Z,15.07
2017-08-10T02:05:39.264Z,15.07
2017-08-10T02:06:39.252Z,15.12
2017-08-10T02:07:39.225Z,15.15
2017-08-10T02:08:38.894Z,15.15
2017-08-10T02:09:39.176Z,15.16
2017-08-10T02:10:38.857Z,15.09
2017-08-10T02:11:39.138Z,15.16
2017-08-10T02:12:39.116Z,15.13
2017-08-10T02:13:39.087Z,15.19
2017-08-10T02:14:39.070Z,15.16
2017-08-10T02:15:39.051Z,15.13
2017-08-10T02:16:39.027Z,15.2
2017-08-10T02:17:39.006Z,15.15
2017-08-10T02:18:38.996Z,15.18
2017-08-10T02:19:38.965Z,15.15
2017-08-10T02:20:38.946Z,15.19
2017-08-10T02:21:38.925Z,15.2
2017-08-10T02:22:38.900Z,15.25
2017-08-10T02:23:38.633Z,15.18
2017-08-10T02:24:38.861Z,15.16
2017-08-10T02:25:38.830Z,15.28
2017-08-10T02:26:38.817Z,15.19
2017-08-10T02:27:38.796Z,15.23
2017-08-10T02:28:38.773Z,15.18
2017-08-10T02:29:38.751Z,15.12
2017-08-10T02:30:38.733Z,15.15
2017-08-10T02:31:38.412Z,15.15
2017-08-10T02:32:38.696Z,15.23
2017-08-10T02:33:38.669Z,15.2
2017-08-10T02:34:38.646Z,15.18
2017-08-10T02:35:38.627Z,15.15
2017-08-10T02:36:38.325Z,15.2
2017-08-10T02:37:38.280Z,15.12
2017-08-10T02:38:38.811Z,15.09
2017-08-10T02:39:38.543Z,15.11
2017-08-10T02:40:38.224Z,15.05
2017-08-10T02:41:38.505Z,15.07
2017-08-10T02:42:38.480Z,15
2017-08-10T02:43:38.451Z,15.01
2017-08-10T02:44:38.436Z,15.05
2017-08-10T02:45:38.414Z,15.01
2017-08-10T02:46:38.395Z,15.04
2017-08-10T02:47:38.372Z,15
2017-08-10T02:48:38.355Z,15.03
2017-08-10T02:49:38.327Z,15
2017-08-10T02:50:38.312Z,15.09
2017-08-10T02:51:38.299Z,15.03
2017-08-10T02:52:38.268Z,15.04
2017-08-10T02:53:38.249Z,15.05
2017-08-10T02:54:38.273Z,15.04
2017-08-10T02:55:38.254Z,15.11
2017-08-10T02:56:38.175Z,15.11
2017-08-10T02:57:38.154Z,15.13
2017-08-10T02:58:38.142Z,15.2
2017-08-10T02:59:37.829Z,15.07
2017-08-10T03:00:38.094Z,15.12
2017-08-10T03:01:38.071Z,15.05
2017-08-10T03:02:38.063Z,15.09
2017-08-10T03:03:38.026Z,15.05
2017-08-10T03:04:38.007Z,15.03
2017-08-10T03:05:37.994Z,15.03
2017-08-10T03:06:37.964Z,15.01
2017-08-10T03:07:37.946Z,15.01
2017-08-10T03:08:37.924Z,15
2017-08-10T03:09:37.907Z,15.11
2017-08-10T03:10:37.885Z,15.11
2017-08-10T03:11:37.860Z,15.12
2017-08-10T03:12:37.844Z,15.09
2017-08-10T03:13:37.815Z,15.05
2017-08-10T03:14:37.801Z,15.13
2017-08-10T03:15:37.781Z,15.05
2017-08-10T03:16:37.754Z,15.09
2017-08-10T03:17:37.734Z,15.01
2017-08-10T03:18:37.724Z,15
2017-08-10T03:19:37.723Z,15
2017-08-10T03:20:37.666Z,14.98
2017-08-10T03:21:37.642Z,15.03
2017-08-10T03:22:37.632Z,14.97
2017-08-10T03:23:37.302Z,14.93
2017-08-10T03:24:37.595Z,15.01
2017-08-10T03:25:37.563Z,15.01
2017-08-10T03:26:37.538Z,14.98
2017-08-10T03:27:37.519Z,15
2017-08-10T03:28:37.513Z,15.05
2017-08-10T03:29:37.479Z,15.01
2017-08-10T03:30:37.462Z,15.01
2017-08-10T03:31:37.437Z,15.07
2017-08-10T03:32:37.110Z,15.07
2017-08-10T03:33:37.397Z,15.12
2017-08-10T03:34:37.380Z,15.01
2017-08-10T03:35:37.349Z,15.07
2017-08-10T03:36:37.328Z,15
2017-08-10T03:37:37.307Z,15
2017-08-10T03:38:37.285Z,15.07
2017-08-10T03:39:37.261Z,15.03
2017-08-10T03:40:37.244Z,15
2017-08-10T03:41:37.229Z,15.01
2017-08-10T03:42:37.201Z,15
2017-08-10T03:43:37.177Z,14.95
2017-08-10T03:44:37.440Z,14.91
2017-08-10T03:45:37.136Z,15
2017-08-10T03:46:37.114Z,14.94
2017-08-10T03:47:37.098Z,15.04
2017-08-10T03:48:37.069Z,15.09
2017-08-10T03:49:37.061Z,15
2017-08-10T03:50:37.033Z,15.03
2017-08-10T03:51:37.012Z,15
2017-08-10T03:52:36.986Z,14.97
2017-08-10T03:53:36.961Z,15
2017-08-10T03:54:36.955Z,15.05
2017-08-10T03:55:36.927Z,15.04
2017-08-10T03:56:36.899Z,15.09
2017-08-10T03:57:36.886Z,15.07
2017-08-10T03:58:36.865Z,15.11
2017-08-10T03:59:36.842Z,15.15
2017-08-10T04:00:36.823Z,15.18
2017-08-10T04:01:36.805Z,15.16
2017-08-10T04:02:37.025Z,15.19
2017-08-10T04:03:36.810Z,15.3
2017-08-10T04:04:36.729Z,15.3
2017-08-10T04:05:36.722Z,15.27
2017-08-10T04:06:36.401Z,15.34
2017-08-10T04:07:36.671Z,15.27
2017-08-10T04:08:36.649Z,15.23
2017-08-10T04:09:36.632Z,15.3
2017-08-10T04:10:36.605Z,15.27
2017-08-10T04:11:36.597Z,15.27
2017-08-10T04:12:36.564Z,15.3
2017-08-10T04:13:36.545Z,15.28
2017-08-10T04:14:36.525Z,15.23
2017-08-10T04:15:36.498Z,15.28
2017-08-10T04:16:36.507Z,15.3
2017-08-10T04:17:36.163Z,15.28
2017-08-10T04:18:36.439Z,15.27
2017-08-10T04:19:36.416Z,15.33
2017-08-10T04:20:36.395Z,15.37
2017-08-10T04:21:36.379Z,15.37
2017-08-10T04:22:36.357Z,15.33
2017-08-10T04:23:36.333Z,15.41
2017-08-10T04:24:36.313Z,15.33
2017-08-10T04:25:35.996Z,15.44
2017-08-10T04:26:36.269Z,15.46
2017-08-10T04:27:36.248Z,15.44
2017-08-10T04:28:36.227Z,15.48
2017-08-10T04:29:36.206Z,15.4
2017-08-10T04:30:36.190Z,15.48
2017-08-10T04:31:36.168Z,15.52
2017-08-10T04:32:36.140Z,15.48
2017-08-10T04:33:36.121Z,15.46
2017-08-10T04:34:36.101Z,15.52
2017-08-10T04:35:36.104Z,15.53
2017-08-10T04:36:36.057Z,15.53
2017-08-10T04:37:36.053Z,15.64
2017-08-10T04:38:35.718Z,15.52
2017-08-10T04:39:36.007Z,15.48
2017-08-10T04:40:35.974Z,15.52
2017-08-10T04:41:35.957Z,15.49
2017-08-10T04:42:35.946Z,15.48
2017-08-10T04:43:35.611Z,15.51
2017-08-10T04:44:35.885Z,15.52
2017-08-10T04:45:35.916Z,15.53
2017-08-10T04:46:35.850Z,15.58
2017-08-10T04:47:35.523Z,15.52
2017-08-10T04:48:35.814Z,15.49
2017-08-10T04:49:35.795Z,15.49
2017-08-10T04:50:35.768Z,15.51
2017-08-10T04:51:35.791Z,15.49
2017-08-10T04:52:35.424Z,15.48
2017-08-10T04:53:35.760Z,15.51
2017-08-10T04:54:35.676Z,15.51
2017-08-10T04:55:35.660Z,15.46
2017-08-10T04:56:35.643Z,15.46
2017-08-10T04:57:35.620Z,15.49
2017-08-10T04:58:35.590Z,15.55
2017-08-10T04:59:35.570Z,15.49
2017-08-10T05:00:35.556Z,15.49
2017-08-10T05:01:35.540Z,15.46
2017-08-10T05:02:35.511Z,15.49
2017-08-10T05:03:35.490Z,15.51
2017-08-10T05:04:35.493Z,15.48
2017-08-10T05:05:35.454Z,15.53
2017-08-10T05:06:35.426Z,15.49
2017-08-10T05:07:35.405Z,15.53
2017-08-10T05:08:35.390Z,15.48
2017-08-10T05:09:35.365Z,15.62
2017-08-10T05:10:35.340Z,15.6
2017-08-10T05:11:35.322Z,15.7
2017-08-10T05:12:35.003Z,15.67
2017-08-10T05:13:34.974Z,15.7
2017-08-10T05:14:35.261Z,15.71
2017-08-10T05:15:35.235Z,15.77
2017-08-10T05:16:35.213Z,15.84
2017-08-10T05:17:35.191Z,15.77
2017-08-10T05:18:35.210Z,15.77
2017-08-10T05:19:35.153Z,15.78
2017-08-10T05:20:35.137Z,15.77
2017-08-10T05:21:35.116Z,15.78
2017-08-10T05:22:35.100Z,15.8
2017-08-10T05:23:35.074Z,15.81
2017-08-10T05:24:35.047Z,15.84
2017-08-10T05:25:34.732Z,15.84
2017-08-10T05:26:35.006Z,15.8
2017-08-10T05:27:34.987Z,15.92
2017-08-10T05:28:34.988Z,15.86
2017-08-10T05:29:34.956Z,15.92
2017-08-10T05:30:34.921Z,16.01
2017-08-10T05:31:34.925Z,15.88
2017-08-10T05:32:34.878Z,15.95
2017-08-10T05:33:34.856Z,15.96
2017-08-10T05:34:34.587Z,15.96
2017-08-10T05:35:34.824Z,15.96
2017-08-10T05:36:34.500Z,15.98
2017-08-10T05:37:34.774Z,15.93
2017-08-10T05:38:34.756Z,16.08
2017-08-10T05:39:34.736Z,16.08
2017-08-10T05:40:34.711Z,16.1
2017-08-10T05:41:34.703Z,16.13
2017-08-10T05:42:34.679Z,16.16
2017-08-10T05:43:34.665Z,16.13
2017-08-10T05:44:34.336Z,16.16
2017-08-10T05:45:34.623Z,16.17
2017-08-10T05:46:34.590Z,16.17
2017-08-10T05:47:34.578Z,16.3
2017-08-10T05:48:34.252Z,16.18
2017-08-10T05:49:34.530Z,16.18
2017-08-10T05:50:34.513Z,16.33
2017-08-10T05:51:34.490Z,16.32
2017-08-10T05:52:34.480Z,16.34
2017-08-10T05:53:34.461Z,16.47
2017-08-10T05:54:34.458Z,16.45
2017-08-10T05:55:34.411Z,16.44
2017-08-10T05:56:34.393Z,16.63
2017-08-10T05:57:34.064Z,16.54
2017-08-10T05:58:34.053Z,16.6
2017-08-10T05:59:34.372Z,16.57
2017-08-10T06:00:34.300Z,16.62
2017-08-10T06:01:34.284Z,16.62
2017-08-10T06:02:34.261Z,16.52
2017-08-10T06:03:34.245Z,16.57
2017-08-10T06:04:34.277Z,16.59
2017-08-10T06:05:34.209Z,16.59
2017-08-10T06:06:34.181Z,16.62
2017-08-10T06:07:34.165Z,16.7
2017-08-10T06:08:34.136Z,16.75
2017-08-10T06:09:34.122Z,16.87
2017-08-10T06:10:34.097Z,16.9
2017-08-10T06:11:34.084Z,16.88
2017-08-10T06:12:34.058Z,16.88
2017-08-10T06:13:34.039Z,16.95
2017-08-10T06:14:34.018Z,17.09
2017-08-10T06:15:34.001Z,17.14
2017-08-10T06:16:33.984Z,17.12
2017-08-10T06:17:33.960Z,17.33
2017-08-10T06:18:33.938Z,17.42
2017-08-10T06:19:33.928Z,17.35
2017-08-10T06:20:34.305Z,17.53
2017-08-10T06:21:33.877Z,17.55
2017-08-10T06:22:34.066Z,17.63
2017-08-10T06:23:33.834Z,17.66
2017-08-10T06:24:34.120Z,17.73
2017-08-10T06:25:34.197Z,17.63
2017-08-10T06:26:34.726Z,17.62
2017-08-10T06:27:33.651Z,17.6
2017-08-10T06:28:33.737Z,17.58
2017-08-10T06:29:33.716Z,17.53
2017-08-10T06:30:33.695Z,17.53
2017-08-10T06:31:33.685Z,17.43
2017-08-10T06:32:33.656Z,17.39
2017-08-10T06:33:33.637Z,17.39
2017-08-10T06:34:33.621Z,17.28
2017-08-10T06:35:33.598Z,17.39
2017-08-10T06:36:33.573Z,17.39
2017-08-10T06:37:33.558Z,17.27
2017-08-10T06:38:33.537Z,17.38
2017-08-10T06:39:33.830Z,17.39
2017-08-10T06:40:33.509Z,17.43
2017-08-10T06:41:33.478Z,17.24
2017-08-10T06:42:33.456Z,17.1
2017-08-10T06:43:33.439Z,16.98
2017-08-10T06:44:33.416Z,17.02
2017-08-10T06:45:33.401Z,16.99
2017-08-10T06:46:33.371Z,16.91
2017-08-10T06:47:33.372Z,16.96
2017-08-10T06:48:33.358Z,16.95
2017-08-10T06:49:33.366Z,16.98
2017-08-10T06:50:33.297Z,16.9
2017-08-10T06:51:33.277Z,16.88
2017-08-10T06:52:33.262Z,16.96
2017-08-10T06:53:33.238Z,16.92
2017-08-10T06:54:32.913Z,16.98
2017-08-10T06:55:33.196Z,16.95
2017-08-10T06:56:33.187Z,16.84
2017-08-10T06:57:33.170Z,16.96
2017-08-10T06:58:33.132Z,16.81
2017-08-10T06:59:33.129Z,16.95
2017-08-10T07:00:33.102Z,16.96
2017-08-10T07:01:33.083Z,16.95
2017-08-10T07:02:33.060Z,16.95
2017-08-10T07:03:33.091Z,16.9
2017-08-10T07:04:33.013Z,16.88
2017-08-10T07:05:32.992Z,16.99
2017-08-10T07:06:32.981Z,16.87
2017-08-10T07:07:32.954Z,16.87
2017-08-10T07:08:32.933Z,16.9
2017-08-10T07:09:32.911Z,16.91
2017-08-10T07:10:32.902Z,16.82
2017-08-10T07:11:32.875Z,16.91
2017-08-10T07:12:32.847Z,16.88
2017-08-10T07:13:32.831Z,16.9
2017-08-10T07:14:32.811Z,16.95
2017-08-10T07:15:32.790Z,16.96
2017-08-10T07:16:32.773Z,16.96
2017-08-10T07:17:32.781Z,17.02
2017-08-10T07:18:32.734Z,17.03
2017-08-10T07:19:32.409Z,17.12
2017-08-10T07:20:32.690Z,17.1
2017-08-10T07:21:32.675Z,17.15
2017-08-10T07:22:32.653Z,17.1
2017-08-10T07:23:32.627Z,17.15
2017-08-10T07:24:32.865Z,17.21
2017-08-10T07:25:32.586Z,17.17
2017-08-10T07:26:32.268Z,17.18
2017-08-10T07:27:32.547Z,17.2
2017-08-10T07:28:32.528Z,17.18
2017-08-10T07:29:32.559Z,17.1
2017-08-10T07:30:32.496Z,17.14
2017-08-10T07:31:32.460Z,17.1
2017-08-10T07:32:32.449Z,17.05
2017-08-10T07:33:32.424Z,17.12
2017-08-10T07:34:32.405Z,17.09
2017-08-10T07:35:32.458Z,17.15
2017-08-10T07:36:32.359Z,17.06
2017-08-10T07:37:32.366Z,16.99
2017-08-10T07:38:32.321Z,17.03
2017-08-10T07:39:32.351Z,17.12
2017-08-10T07:40:32.283Z,17.15
2017-08-10T07:41:31.966Z,17.07
2017-08-10T07:42:32.238Z,17.17
2017-08-10T07:43:32.224Z,17.27
2017-08-10T07:44:32.203Z,17.22
2017-08-10T07:45:32.176Z,17.27
2017-08-10T07:46:32.164Z,17.32
2017-08-10T07:47:32.143Z,17.25
2017-08-10T07:48:32.118Z,17.28
2017-08-10T07:49:32.106Z,17.3
2017-08-10T07:50:32.079Z,17.25
2017-08-10T07:51:32.057Z,17.25
2017-08-10T07:52:32.041Z,17.2
2017-08-10T07:53:31.410Z,17.21
2017-08-10T07:54:32.005Z,17.07
2017-08-10T07:55:31.978Z,17.17
2017-08-10T07:56:31.656Z,17.3
2017-08-10T07:57:31.937Z,17.17
2017-08-10T07:58:31.922Z,17.09
2017-08-10T07:59:31.588Z,17.1
2017-08-10T08:00:31.878Z,17.18
2017-08-10T08:01:31.860Z,17.17
2017-08-10T08:02:31.832Z,17.2
2017-08-10T08:03:31.812Z,17.35
2017-08-10T08:04:31.800Z,17.32
2017-08-10T08:05:31.797Z,17.39
2017-08-10T08:06:31.755Z,17.32
2017-08-10T08:07:31.727Z,17.33
2017-08-10T08:08:31.717Z,17.42
2017-08-10T08:09:31.692Z,17.39
2017-08-10T08:10:31.685Z,17.51
2017-08-10T08:11:31.650Z,17.42
2017-08-10T08:12:31.637Z,17.43
2017-08-10T08:13:31.612Z,17.39
2017-08-10T08:14:31.594Z,17.49
2017-08-10T08:15:31.571Z,17.49
2017-08-10T08:16:31.549Z,17.45
2017-08-10T08:17:31.531Z,17.53
2017-08-10T08:18:31.507Z,17.57
2017-08-10T08:19:31.496Z,17.55
2017-08-10T08:20:31.475Z,17.63
2017-08-10T08:21:31.150Z,17.62
2017-08-10T08:22:31.429Z,17.63
2017-08-10T08:23:31.117Z,17.62
2017-08-10T08:24:31.390Z,17.71
2017-08-10T08:25:31.369Z,17.8
2017-08-10T08:26:31.344Z,17.84
2017-08-10T08:27:31.339Z,17.92
2017-08-10T08:28:31.318Z,17.98
2017-08-10T08:29:31.289Z,17.96
2017-08-10T08:30:31.278Z,18.09
2017-08-10T08:31:31.306Z,17.99
2017-08-10T08:32:31.250Z,18.04
2017-08-10T08:33:31.211Z,18.21
2017-08-10T08:34:31.199Z,18.19
2017-08-10T08:35:31.173Z,18.25
2017-08-10T08:36:31.156Z,18.26
2017-08-10T08:37:31.133Z,18.29
2017-08-10T08:38:31.108Z,18.39
2017-08-10T08:39:31.099Z,18.56
2017-08-10T08:40:31.072Z,18.51
2017-08-10T08:41:31.054Z,18.6
2017-08-10T08:42:31.086Z,18.57
2017-08-10T08:43:30.713Z,18.6
2017-08-10T08:44:30.994Z,18.71
2017-08-10T08:45:30.725Z,18.74
2017-08-10T08:46:30.971Z,18.76
2017-08-10T08:47:30.942Z,18.72
2017-08-10T08:48:30.923Z,18.84
2017-08-10T08:49:30.906Z,18.79
2017-08-10T08:50:30.873Z,18.87
2017-08-10T08:51:30.867Z,18.86
2017-08-10T08:52:30.835Z,18.97
2017-08-10T08:53:30.821Z,18.96
2017-08-10T08:54:30.804Z,19.05
2017-08-10T08:55:30.782Z,19.16
2017-08-10T08:56:30.876Z,19.23
2017-08-10T08:57:30.744Z,19.31
2017-08-10T08:58:30.783Z,19.42
2017-08-10T08:59:30.710Z,19.52
2017-08-10T09:00:30.694Z,19.61
2017-08-10T09:01:30.669Z,19.65
2017-08-10T09:02:30.661Z,19.76
2017-08-10T09:03:30.636Z,19.85
2017-08-10T09:04:30.664Z,19.9
2017-08-10T09:05:30.597Z,20.1
2017-08-10T09:06:30.572Z,20.16
2017-08-10T09:07:30.554Z,20.16
2017-08-10T09:08:30.561Z,20.33
2017-08-10T09:09:30.517Z,20.46
2017-08-10T09:10:30.509Z,20.72
2017-08-10T09:11:30.543Z,20.76
2017-08-10T09:12:30.484Z,20.83
2017-08-10T09:13:30.444Z,20.88
2017-08-10T09:14:30.435Z,21.06
2017-08-10T09:15:30.414Z,21.37
2017-08-10T09:16:30.141Z,21.64
2017-08-10T09:17:30.434Z,22.29
2017-08-10T09:18:30.069Z,22.57
2017-08-10T09:19:30.359Z,22.59
2017-08-10T09:20:30.328Z,22.59
2017-08-10T09:21:30.312Z,22.61
2017-08-10T09:22:30.306Z,22.46
2017-08-10T09:23:30.280Z,22.52
2017-08-10T09:24:30.267Z,22.84
2017-08-10T09:25:30.348Z,23.09
2017-08-10T09:26:30.262Z,23.39
2017-08-10T09:27:29.859Z,23.57
2017-08-10T09:28:30.198Z,23.42
2017-08-10T09:29:30.189Z,23.47
2017-08-10T09:30:29.881Z,23.6
2017-08-10T09:31:30.214Z,23.42
2017-08-10T09:32:30.140Z,23.35
2017-08-10T09:33:30.179Z,23.26
2017-08-10T09:34:30.124Z,23.21
2017-08-10T09:35:30.099Z,23.31
2017-08-10T09:36:30.096Z,23.26
2017-08-10T09:37:30.063Z,23.14
2017-08-10T09:38:30.050Z,23
2017-08-10T09:39:30.091Z,23.01
2017-08-10T09:40:30.033Z,22.84
2017-08-10T09:41:29.707Z,22.76
2017-08-10T09:42:29.742Z,22.64
2017-08-10T09:43:29.980Z,22.54
2017-08-10T09:44:29.966Z,22.39
2017-08-10T09:45:29.949Z,22.31
2017-08-10T09:46:29.936Z,22.29
2017-08-10T09:47:29.923Z,22.19
2017-08-10T09:48:29.901Z,22.39
2017-08-10T09:49:29.889Z,22.45
2017-08-10T09:50:29.925Z,22.6
2017-08-10T09:51:29.862Z,22.81
2017-08-10T09:52:29.856Z,22.79
2017-08-10T09:53:29.829Z,22.75
2017-08-10T09:54:29.803Z,22.7
2017-08-10T09:55:29.841Z,22.64
2017-08-10T09:56:29.778Z,22.63
2017-08-10T09:57:29.769Z,22.61
2017-08-10T09:58:29.743Z,22.85
2017-08-10T09:59:29.738Z,23.12
2017-08-10T10:00:29.117Z,23.45
2017-08-10T10:01:29.409Z,23.82
2017-08-10T10:02:29.689Z,23.92
2017-08-10T10:03:29.974Z,23.94
2017-08-10T10:04:29.666Z,23.9
2017-08-10T10:05:29.642Z,23.75
2017-08-10T10:06:29.624Z,24.02
2017-08-10T10:07:29.316Z,24.26
2017-08-10T10:08:29.303Z,24.56
2017-08-10T10:09:29.580Z,24.75
2017-08-10T10:10:29.579Z,24.9
2017-08-10T10:11:29.561Z,24.83
2017-08-10T10:12:29.595Z,24.98
2017-08-10T10:13:29.532Z,24.94
2017-08-10T10:14:29.524Z,24.8
2017-08-10T10:15:29.497Z,24.61
2017-08-10T10:16:29.497Z,24.39
2017-08-10T10:17:29.486Z,24.16
2017-08-10T10:18:29.467Z,23.92
2017-08-10T10:19:29.498Z,23.63
2017-08-10T10:20:29.449Z,23.34
2017-08-10T10:21:29.434Z,23.06
2017-08-10T10:22:29.409Z,22.78
2017-08-10T10:23:29.403Z,22.63
2017-08-10T10:24:29.378Z,22.59
2017-08-10T10:25:29.361Z,22.54
2017-08-10T10:26:29.352Z,22.48
2017-08-10T10:27:29.334Z,22.57
2017-08-10T10:28:29.319Z,22.59
2017-08-10T10:29:29.296Z,22.66
2017-08-10T10:30:29.289Z,22.63
2017-08-10T10:31:29.267Z,22.75
2017-08-10T10:32:29.252Z,22.85
2017-08-10T10:33:29.247Z,22.99
2017-08-10T10:34:29.229Z,23.19
2017-08-10T10:35:29.207Z,23.26
2017-08-10T10:36:29.191Z,23.32
2017-08-10T10:37:29.240Z,23.44
2017-08-10T10:38:28.859Z,23.56
2017-08-10T10:39:29.401Z,23.62
2017-08-10T10:40:29.134Z,23.79
2017-08-10T10:41:29.121Z,23.97
2017-08-10T10:42:29.096Z,23.94
2017-08-10T10:43:29.083Z,23.94
2017-08-10T10:44:29.069Z,23.82
2017-08-10T10:45:29.052Z,23.87
2017-08-10T10:46:29.039Z,23.82
2017-08-10T10:47:29.028Z,23.75
2017-08-10T10:48:29.012Z,23.63
2017-08-10T10:49:28.996Z,23.67
2017-08-10T10:50:28.991Z,23.53
2017-08-10T10:51:28.966Z,23.5
2017-08-10T10:52:28.955Z,23.39
2017-08-10T10:53:29.174Z,23.31
2017-08-10T10:54:28.935Z,23.35
2017-08-10T10:55:28.910Z,23.14
2017-08-10T10:56:28.889Z,23.15
2017-08-10T10:57:28.876Z,23.06
2017-08-10T10:58:28.865Z,22.91
2017-08-10T10:59:28.846Z,22.84
2017-08-10T11:00:28.874Z,22.74
2017-08-10T11:01:28.819Z,22.61
2017-08-10T11:02:28.792Z,22.6
2017-08-10T11:03:28.785Z,22.51
2017-08-10T11:04:28.766Z,22.36
2017-08-10T11:05:28.748Z,22.21
2017-08-10T11:06:28.729Z,22.19
2017-08-10T11:07:28.436Z,22.21
2017-08-10T11:08:28.693Z,22.19
2017-08-10T11:09:28.675Z,22.33
2017-08-10T11:10:28.661Z,22.36
2017-08-10T11:11:28.643Z,22.31
2017-08-10T11:12:28.635Z,22.31
2017-08-10T11:13:28.617Z,22.29
2017-08-10T11:14:28.599Z,22.24
2017-08-10T11:15:28.876Z,22.2
2017-08-10T11:16:28.565Z,22.17
2017-08-10T11:17:28.553Z,22.14
2017-08-10T11:18:28.542Z,22.17
2017-08-10T11:19:28.511Z,22.06
2017-08-10T11:20:28.500Z,22.04
2017-08-10T11:21:43.090Z,21.98
2017-08-10T11:22:28.460Z,22.01
2017-08-10T11:23:28.442Z,21.82
2017-08-10T11:24:28.637Z,21.89
2017-08-10T11:25:28.412Z,21.94
2017-08-10T11:26:28.397Z,22.05
2017-08-10T11:27:28.373Z,22.05
2017-08-10T11:28:28.378Z,22.17
2017-08-10T11:29:28.339Z,22.23
2017-08-10T11:30:28.028Z,22.29
2017-08-10T11:31:28.305Z,22.38
2017-08-10T11:32:28.290Z,22.35
2017-08-10T11:33:28.273Z,22.45
2017-08-10T11:34:28.271Z,22.44
2017-08-10T11:35:28.236Z,22.59
2017-08-10T11:36:28.217Z,22.66
2017-08-10T11:37:28.205Z,22.79
2017-08-10T11:38:27.886Z,22.88
2017-08-10T11:39:28.170Z,22.84
2017-08-10T11:40:28.148Z,22.86
2017-08-10T11:41:28.136Z,22.79
2017-08-10T11:42:28.135Z,22.84
2017-08-10T11:43:28.100Z,22.84
2017-08-10T11:44:27.903Z,22.82
2017-08-10T11:45:28.071Z,22.84
2017-08-10T11:46:27.955Z,22.85
2017-08-10T11:47:28.035Z,22.81
2017-08-10T11:48:28.026Z,22.79
2017-08-10T11:49:28.003Z,22.74
2017-08-10T11:50:27.986Z,22.76
2017-08-10T11:51:27.966Z,22.7
2017-08-10T11:52:27.958Z,22.66
2017-08-10T11:53:27.632Z,22.56
2017-08-10T11:54:27.925Z,22.59
2017-08-10T11:55:27.901Z,22.57
2017-08-10T11:56:27.885Z,22.66
2017-08-10T11:57:27.873Z,22.67
2017-08-10T11:58:27.904Z,22.74
2017-08-10T11:59:27.866Z,22.74
2017-08-10T12:00:27.535Z,22.63
2017-08-10T12:01:27.800Z,22.66
2017-08-10T12:02:27.794Z,22.61
2017-08-10T12:03:27.792Z,22.54
2017-08-10T12:04:27.751Z,22.64
2017-08-10T12:05:27.742Z,22.75
2017-08-10T12:06:27.722Z,22.69
2017-08-10T12:07:27.705Z,22.75
2017-08-10T12:08:27.688Z,22.69
2017-08-10T12:09:27.717Z,22.69
2017-08-10T12:10:27.696Z,22.66
2017-08-10T12:11:27.710Z,22.57
2017-08-10T12:12:27.618Z,22.6
2017-08-10T12:13:27.603Z,22.59
2017-08-10T12:14:27.589Z,22.57
2017-08-10T12:15:27.570Z,22.51
2017-08-10T12:16:27.574Z,22.67
2017-08-10T12:17:27.241Z,22.61
2017-08-10T12:18:27.720Z,22.74
2017-08-10T12:19:27.494Z,22.84
2017-08-10T12:20:27.490Z,23
2017-08-10T12:21:27.470Z,23.14
2017-08-10T12:22:27.451Z,23.18
2017-08-10T12:23:27.436Z,23.25
2017-08-10T12:24:27.415Z,23.15
2017-08-10T12:25:27.402Z,23.19
2017-08-10T12:26:27.381Z,23.25
2017-08-10T12:27:27.371Z,23.26
2017-08-10T12:28:27.351Z,23.31
2017-08-10T12:29:27.419Z,23.42
2017-08-10T12:30:27.361Z,23.45
2017-08-10T12:31:27.351Z,23.38
2017-08-10T12:32:26.987Z,23.31
2017-08-10T12:33:27.263Z,23.04
2017-08-10T12:34:27.255Z,23.01
2017-08-10T12:35:27.235Z,22.85
2017-08-10T12:36:26.928Z,22.75
2017-08-10T12:37:27.204Z,22.74
2017-08-10T12:38:27.192Z,22.7
2017-08-10T12:39:27.167Z,22.74
2017-08-10T12:40:27.161Z,22.75
2017-08-10T12:41:27.138Z,22.74
2017-08-10T12:42:27.115Z,22.69
2017-08-10T12:43:27.102Z,22.85
2017-08-10T12:44:27.090Z,22.79
2017-08-10T12:45:27.069Z,22.84
2017-08-10T12:46:27.052Z,22.85
2017-08-10T12:47:27.045Z,23
2017-08-10T12:48:26.721Z,23.11
2017-08-10T12:49:27.004Z,23.31
2017-08-10T12:50:26.998Z,23.39
2017-08-10T12:51:26.977Z,23.42
2017-08-10T12:52:27.005Z,23.39
2017-08-10T12:53:26.939Z,23.37
2017-08-10T12:54:26.930Z,23.21
2017-08-10T12:55:26.915Z,23.16
2017-08-10T12:56:26.885Z,23.22